Time;durP1;ratioP1;P1;durP2;ratioP2;P2;SDS_P1;SDS_P2;PMS_P1;PMS_P2;Temp;Humidity;BMP_temperature;BMP_pressure;BME280_temperature;BME280_humidity;BME280_pressure;Samples;Min_cycle;Max_cycle;Signal;HPM_P1;HPM_P2
2022/05/20 00:01:04;;;;;;;36.03;21.98;;;;;;;;;;5048131;28;20151;-77
2022/05/20 00:03:32;;;;;;;44.13;23.30;;;;;;;;;;5065083;28;20056;-78
2022/05/20 00:05:59;;;;;;;38.42;24.20;;;;;;;;;;5065985;28;20540;-77
2022/05/20 00:08:27;;;;;;;40.97;25.48;;;;;;;;;;5048098;28;20052;-76
2022/05/20 00:10:55;;;;;;;38.10;25.02;;;;;;;;;;5065644;28;20940;-77
2022/05/20 00:13:23;;;;;;;41.50;26.13;;;;;;;;;;5066581;28;20143;-77
2022/05/20 00:15:50;;;;;;;54.92;27.42;;;;;;;;;;5065659;28;20072;-77
2022/05/20 00:18:18;;;;;;;41.80;25.42;;;;;;;;;;5066509;28;20673;-77
2022/05/20 00:20:45;;;;;;;47.70;27.40;;;;;;;;;;5065719;28;20079;-77
2022/05/20 00:23:13;;;;;;;46.33;28.40;;;;;;;;;;5066454;28;20083;-77
2022/05/20 00:25:46;;;;;;;46.55;27.75;;;;;;;;;;5065643;28;20048;-77
2022/05/20 00:28:24;;;;;;;43.70;26.13;;;;;;;;;;5048154;28;20135;-77
2022/05/20 00:31:11;;;;;;;45.67;29.00;;;;;;;;;;5066278;28;20808;-77
2022/05/20 00:33:38;;;;;;;46.35;27.50;;;;;;;;;;5066229;28;20052;-77
2022/05/20 00:36:06;;;;;;;47.25;29.95;;;;;;;;;;5066432;28;20060;-77
2022/05/20 00:38:33;;;;;;;42.00;27.40;;;;;;;;;;5066537;28;20075;-77
2022/05/20 00:41:01;;;;;;;51.33;29.10;;;;;;;;;;5066854;28;20519;-77
2022/05/20 00:43:35;;;;;;;44.92;28.58;;;;;;;;;;5066730;28;20096;-78
2022/05/20 00:46:13;;;;;;;47.50;29.92;;;;;;;;;;5066658;28;20579;-77
2022/05/20 00:48:40;;;;;;;50.88;30.08;;;;;;;;;;5067018;28;20503;-77
2022/05/20 00:51:08;;;;;;;45.40;28.98;;;;;;;;;;5055092;28;20144;-78
2022/05/20 00:53:40;;;;;;;52.17;31.42;;;;;;;;;;5029407;28;20099;-77
2022/05/20 00:56:09;;;;;;;55.67;32.10;;;;;;;;;;5039225;28;20084;-77
2022/05/20 00:58:36;;;;;;;54.22;34.22;;;;;;;;;;5047309;28;20181;-77
2022/05/20 01:01:04;;;;;;;54.72;31.48;;;;;;;;;;5048002;28;20078;-78
2022/05/20 01:03:31;;;;;;;57.75;31.70;;;;;;;;;;5048843;28;20709;-77
2022/05/20 01:06:00;;;;;;;55.90;31.17;;;;;;;;;;5049896;28;20795;-79
2022/05/20 01:08:29;;;;;;;54.83;31.05;;;;;;;;;;5047919;28;21870;-78
2022/05/20 01:10:58;;;;;;;54.45;31.15;;;;;;;;;;5041109;28;21917;-78
2022/05/20 01:13:27;;;;;;;54.45;31.92;;;;;;;;;;5039633;28;20076;-78
2022/05/20 01:15:55;;;;;;;50.03;30.42;;;;;;;;;;5044317;28;20128;-78
2022/05/20 01:18:23;;;;;;;52.47;32.30;;;;;;;;;;5045534;28;20193;-78
2022/05/20 01:20:52;;;;;;;52.17;32.25;;;;;;;;;;5026567;28;20079;-78
2022/05/20 01:23:21;;;;;;;57.70;32.28;;;;;;;;;;5044189;28;20083;-78
2022/05/20 01:25:49;;;;;;;56.38;33.28;;;;;;;;;;5041221;28;20139;-78
2022/05/20 01:28:18;;;;;;;53.63;32.22;;;;;;;;;;5026642;28;20057;-78
2022/05/20 01:31:05;;;;;;;52.00;32.00;;;;;;;;;;5022956;28;20147;-78
2022/05/20 01:33:36;;;;;;;56.67;32.70;;;;;;;;;;5044777;28;20137;-78
2022/05/20 01:36:07;;;;;;;55.58;33.72;;;;;;;;;;5049741;28;20687;-78
2022/05/20 01:38:34;;;;;;;56.60;32.65;;;;;;;;;;5027030;28;20052;-78
2022/05/20 01:41:04;;;;;;;55.08;33.72;;;;;;;;;;5043319;28;21859;-78
2022/05/20 01:43:37;;;;;;;57.67;34.85;;;;;;;;;;5045772;28;20049;-78
2022/05/20 01:46:07;;;;;;;58.70;35.22;;;;;;;;;;5043615;28;20052;-78
2022/05/20 01:48:53;;;;;;;63.25;35.95;;;;;;;;;;5031962;28;20048;-78
2022/05/20 01:51:31;;;;;;;65.05;35.65;;;;;;;;;;5056874;28;20080;-78
2022/05/20 01:54:01;;;;;;;62.95;35.67;;;;;;;;;;5051649;28;20055;-78
2022/05/20 01:56:35;;;;;;;61.67;35.58;;;;;;;;;;5028197;28;20484;-79
2022/05/20 01:59:23;;;;;;;64.18;37.13;;;;;;;;;;5043188;28;20088;-78
2022/05/20 02:02:16;;;;;;;66.53;37.08;;;;;;;;;;5056937;28;20115;-79
2022/05/20 02:04:47;;;;;;;62.70;37.45;;;;;;;;;;5050431;28;20177;-78
2022/05/20 02:07:28;;;;;;;63.88;38.83;;;;;;;;;;5047246;28;20147;-78
2022/05/20 02:10:02;;;;;;;63.35;37.08;;;;;;;;;;5046717;28;20061;-78
2022/05/20 02:12:33;;;;;;;65.72;36.20;;;;;;;;;;5031117;28;20118;-78
2022/05/20 02:15:03;;;;;;;61.80;36.72;;;;;;;;;;5052250;28;20938;-78
2022/05/20 02:17:34;;;;;;;64.97;37.70;;;;;;;;;;5055900;28;20202;-78
2022/05/20 02:20:04;;;;;;;61.03;37.40;;;;;;;;;;5054203;28;20044;-78
2022/05/20 02:22:33;;;;;;;59.40;36.50;;;;;;;;;;5029177;28;20063;-77
2022/05/20 02:25:02;;;;;;;71.40;39.55;;;;;;;;;;5047860;28;20146;-77
2022/05/20 02:27:32;;;;;;;65.95;39.15;;;;;;;;;;5036135;28;20160;-78
2022/05/20 02:30:20;;;;;;;75.43;39.83;;;;;;;;;;5032155;28;20060;-78
2022/05/20 02:33:14;;;;;;;73.13;39.45;;;;;;;;;;5038443;28;20680;-78
2022/05/20 02:35:41;;;;;;;76.93;40.47;;;;;;;;;;5045003;28;20076;-78
2022/05/20 02:38:13;;;;;;;73.50;41.20;;;;;;;;;;5053335;28;20069;-78
2022/05/20 02:40:42;;;;;;;74.15;42.22;;;;;;;;;;5042926;28;20044;-78
2022/05/20 02:43:09;;;;;;;74.63;40.42;;;;;;;;;;5082766;28;20134;-78
2022/05/20 02:45:37;;;;;;;73.55;41.10;;;;;;;;;;5058840;28;20050;-78
2022/05/20 02:48:05;;;;;;;74.35;40.83;;;;;;;;;;5057710;28;20474;-79
2022/05/20 02:50:32;;;;;;;75.30;41.78;;;;;;;;;;5040992;28;20084;-78
2022/05/20 02:53:00;;;;;;;79.65;41.90;;;;;;;;;;5062364;28;20120;-78
2022/05/20 02:55:31;;;;;;;72.32;40.85;;;;;;;;;;5034086;28;20127;-79
2022/05/20 02:57:58;;;;;;;73.53;41.33;;;;;;;;;;5055199;28;20772;-79
2022/05/20 03:05:58;;;;;;;75.22;40.75;;;;;;;;;;5075038;28;20117;-79
2022/05/20 03:08:25;;;;;;;76.07;42.53;;;;;;;;;;5061006;28;21540;-78
2022/05/20 03:10:52;;;;;;;79.47;41.55;;;;;;;;;;5062197;28;20074;-78
2022/05/20 03:13:19;;;;;;;80.72;43.05;;;;;;;;;;5068442;28;20083;-79
2022/05/20 03:15:47;;;;;;;77.93;41.80;;;;;;;;;;5047201;28;20570;-78
2022/05/20 03:18:14;;;;;;;73.05;41.65;;;;;;;;;;5055808;28;20067;-78
2022/05/20 03:20:41;;;;;;;75.78;42.65;;;;;;;;;;5041115;28;20052;-78
2022/05/20 03:23:10;;;;;;;71.95;39.63;;;;;;;;;;5063842;28;20103;-78
2022/05/20 03:25:37;;;;;;;77.82;41.25;;;;;;;;;;5051434;28;20052;-78
2022/05/20 03:28:10;;;;;;;72.68;41.95;;;;;;;;;;5038452;28;20175;-78
2022/05/20 03:30:37;;;;;;;80.75;41.22;;;;;;;;;;5063445;28;20587;-78
2022/05/20 03:33:04;;;;;;;72.75;40.17;;;;;;;;;;5056566;28;20141;-78
2022/05/20 03:35:31;;;;;;;76.60;42.15;;;;;;;;;;5054743;28;20135;-78
2022/05/20 03:37:59;;;;;;;75.95;41.15;;;;;;;;;;5047504;28;20084;-78
2022/05/20 03:40:26;;;;;;;75.95;41.22;;;;;;;;;;5043418;28;20048;-78
2022/05/20 03:42:53;;;;;;;76.53;43.03;;;;;;;;;;5073336;28;20112;-77
2022/05/20 03:45:20;;;;;;;76.28;41.72;;;;;;;;;;5070573;28;20110;-77
2022/05/20 03:47:47;;;;;;;74.68;40.78;;;;;;;;;;5036862;28;20064;-77
2022/05/20 03:50:13;;;;;;;76.53;41.70;;;;;;;;;;5046117;28;20214;-77
2022/05/20 03:52:40;;;;;;;74.93;41.70;;;;;;;;;;5030637;28;20128;-77
2022/05/20 03:55:08;;;;;;;72.50;42.45;;;;;;;;;;5052641;28;20044;-77
2022/05/20 03:57:35;;;;;;;74.65;41.35;;;;;;;;;;5048187;28;20164;-77
2022/05/20 04:00:04;;;;;;;87.05;42.60;;;;;;;;;;5048800;28;20098;-77
2022/05/20 04:02:31;;;;;;;67.25;39.10;;;;;;;;;;5058602;28;20080;-77
2022/05/20 04:04:59;;;;;;;76.05;41.17;;;;;;;;;;5067183;28;20079;-77
2022/05/20 04:07:27;;;;;;;73.90;40.92;;;;;;;;;;5046787;28;20076;-77
2022/05/20 04:09:55;;;;;;;72.25;40.97;;;;;;;;;;5062294;28;20076;-77
2022/05/20 04:12:27;;;;;;;70.53;39.63;;;;;;;;;;5065497;28;20048;-77
2022/05/20 04:14:55;;;;;;;69.00;39.75;;;;;;;;;;5059932;28;20900;-77
2022/05/20 04:17:22;;;;;;;73.97;39.30;;;;;;;;;;5035205;28;20075;-77
2022/05/20 04:19:50;;;;;;;65.93;40.50;;;;;;;;;;5064920;28;20044;-77
2022/05/20 04:22:19;;;;;;;67.80;39.28;;;;;;;;;;5061558;28;20040;-77
2022/05/20 04:24:46;;;;;;;69.38;40.78;;;;;;;;;;5075776;28;20079;-77
2022/05/20 04:27:15;;;;;;;72.53;39.28;;;;;;;;;;5057299;28;20469;-77
2022/05/20 04:29:42;;;;;;;61.33;39.30;;;;;;;;;;5053070;28;20184;-78
2022/05/20 04:32:10;;;;;;;63.55;37.15;;;;;;;;;;5051206;28;20080;-77
2022/05/20 04:34:37;;;;;;;58.33;37.20;;;;;;;;;;5076247;28;20044;-77
2022/05/20 04:37:05;;;;;;;68.93;38.67;;;;;;;;;;5061343;28;20068;-77
2022/05/20 04:39:32;;;;;;;56.45;34.05;;;;;;;;;;5036581;28;20068;-78
2022/05/20 04:47:32;;;;;;;55.35;34.10;;;;;;;;;;5058053;28;20102;-77
2022/05/20 04:50:00;;;;;;;54.80;33.97;;;;;;;;;;5056107;28;20120;-77
2022/05/20 04:52:27;;;;;;;53.67;34.33;;;;;;;;;;5052469;28;20098;-77
2022/05/20 04:54:54;;;;;;;49.83;32.08;;;;;;;;;;5065986;28;20087;-77
2022/05/20 04:57:33;;;;;;;51.60;33.15;;;;;;;;;;5060772;28;20174;-78
2022/05/20 05:00:05;;;;;;;53.72;32.92;;;;;;;;;;5066123;28;20098;-80
2022/05/20 05:02:33;;;;;;;49.53;32.50;;;;;;;;;;5086373;28;20060;-80
2022/05/20 05:05:01;;;;;;;53.55;30.65;;;;;;;;;;5072781;28;20105;-80
2022/05/20 05:07:28;;;;;;;45.00;29.75;;;;;;;;;;5063078;28;21800;-78
2022/05/20 05:09:56;;;;;;;47.50;28.75;;;;;;;;;;5049152;28;20049;-77
2022/05/20 05:12:23;;;;;;;43.83;25.70;;;;;;;;;;5057584;28;20068;-77
2022/05/20 05:14:52;;;;;;;38.33;21.25;;;;;;;;;;5063509;28;20076;-75
2022/05/20 05:18:09;;;;;;;31.83;20.15;;;;;;;;;;5037585;28;20155;-76
2022/05/20 05:20:09;;;;;;;33.20;19.10;;;;;;;;;;5070399;28;20439;-76
2022/05/20 05:22:36;;;;;;;52.60;17.92;;;;;;;;;;5068825;28;20111;-77
2022/05/20 05:25:08;;;;;;;29.75;17.52;;;;;;;;;;5046438;28;20061;-76
2022/05/20 05:27:35;;;;;;;31.42;17.98;;;;;;;;;;5069017;28;20182;-75
2022/05/20 05:30:03;;;;;;;35.45;18.70;;;;;;;;;;5041245;28;20132;-75
2022/05/20 05:32:30;;;;;;;31.30;17.23;;;;;;;;;;5051648;28;20679;-77
2022/05/20 05:34:57;;;;;;;44.58;16.92;;;;;;;;;;5028530;28;20129;-76
2022/05/20 05:37:25;;;;;;;34.17;17.77;;;;;;;;;;5017629;28;20168;-74
2022/05/20 05:39:52;;;;;;;34.30;15.98;;;;;;;;;;5066442;28;20122;-75
2022/05/20 05:42:20;;;;;;;34.90;16.73;;;;;;;;;;5066150;28;20127;-75
2022/05/20 05:44:48;;;;;;;33.33;18.33;;;;;;;;;;5049556;28;20048;-75
2022/05/20 05:47:15;;;;;;;32.78;17.35;;;;;;;;;;5048889;28;20056;-75
2022/05/20 05:49:42;;;;;;;37.28;19.05;;;;;;;;;;5066353;28;20176;-75
2022/05/20 05:52:09;;;;;;;36.20;17.83;;;;;;;;;;5065687;28;20156;-75
2022/05/20 05:54:36;;;;;;;33.00;17.73;;;;;;;;;;5048422;28;20091;-75
2022/05/20 05:57:06;;;;;;;29.00;17.17;;;;;;;;;;5065803;28;20045;-75
2022/05/20 05:59:34;;;;;;;38.70;17.90;;;;;;;;;;5047859;28;20432;-75
2022/05/20 06:02:03;;;;;;;36.67;17.30;;;;;;;;;;5064488;28;20048;-75
2022/05/20 06:04:31;;;;;;;40.47;17.20;;;;;;;;;;5048889;28;20076;-77
2022/05/20 06:07:05;;;;;;;28.77;16.83;;;;;;;;;;5065657;28;20099;-75
2022/05/20 06:09:33;;;;;;;35.83;17.50;;;;;;;;;;5065785;28;20087;-75
2022/05/20 06:12:01;;;;;;;32.90;17.77;;;;;;;;;;5047081;28;20144;-75
2022/05/20 06:14:29;;;;;;;32.08;17.48;;;;;;;;;;5047211;28;20098;-75
2022/05/20 06:16:56;;;;;;;37.90;16.77;;;;;;;;;;5064204;28;20467;-76
2022/05/20 06:19:23;;;;;;;38.45;18.38;;;;;;;;;;5065006;28;20106;-75
2022/05/20 06:21:51;;;;;;;30.92;16.80;;;;;;;;;;5064897;28;20096;-75
2022/05/20 06:24:24;;;;;;;33.80;17.48;;;;;;;;;;5064790;28;20730;-75
2022/05/20 06:26:54;;;;;;;30.38;17.30;;;;;;;;;;5047153;28;20908;-75
2022/05/20 06:29:21;;;;;;;32.88;17.52;;;;;;;;;;5065085;28;20048;-75
2022/05/20 06:31:48;;;;;;;33.55;17.00;;;;;;;;;;5065342;28;20140;-75
2022/05/20 06:34:15;;;;;;;31.90;16.58;;;;;;;;;;5065937;28;20051;-76
2022/05/20 06:41:55;;;;;;;31.30;15.95;;;;;;;;;;5064383;28;20387;-75
2022/05/20 06:44:24;;;;;;;30.30;15.50;;;;;;;;;;5064781;28;20080;-75
2022/05/20 06:46:53;;;;;;;30.60;15.10;;;;;;;;;;5065462;28;20137;-79
2022/05/20 06:49:21;;;;;;;29.80;14.95;;;;;;;;;;5066567;28;20056;-76
2022/05/20 06:51:49;;;;;;;23.25;13.45;;;;;;;;;;5047461;28;20465;-76
2022/05/20 06:54:17;;;;;;;28.70;13.35;;;;;;;;;;5065456;28;20087;-77
2022/05/20 06:56:44;;;;;;;22.13;12.95;;;;;;;;;;5065344;28;20052;-76
2022/05/20 06:59:12;;;;;;;23.65;12.75;;;;;;;;;;5068223;28;20045;-78
2022/05/20 07:01:40;;;;;;;27.05;12.77;;;;;;;;;;5050562;28;20137;-76
2022/05/20 07:04:30;;;;;;;22.80;11.43;;;;;;;;;;5048549;28;20060;-76
2022/05/20 07:06:58;;;;;;;18.85;10.73;;;;;;;;;;5067915;28;20076;-76
2022/05/20 07:09:25;;;;;;;19.33;11.57;;;;;;;;;;5050765;28;20735;-76
2022/05/20 07:11:53;;;;;;;17.30;10.32;;;;;;;;;;5049642;28;20048;-77
2022/05/20 07:14:20;;;;;;;17.63;9.60;;;;;;;;;;5068980;28;20098;-76
2022/05/20 07:16:47;;;;;;;18.23;10.13;;;;;;;;;;5068581;28;20135;-77
2022/05/20 07:19:15;;;;;;;17.67;9.68;;;;;;;;;;5069678;28;20577;-76
2022/05/20 07:21:42;;;;;;;17.42;10.18;;;;;;;;;;5068249;28;20714;-78
2022/05/20 07:24:09;;;;;;;26.73;10.77;;;;;;;;;;5035622;28;20132;-76
2022/05/20 07:26:37;;;;;;;20.92;10.18;;;;;;;;;;5070409;28;20072;-77
2022/05/20 07:29:06;;;;;;;22.67;9.73;;;;;;;;;;5070368;28;20080;-77
2022/05/20 07:31:33;;;;;;;20.35;10.90;;;;;;;;;;5070893;28;20399;-77
2022/05/20 07:34:01;;;;;;;18.52;9.63;;;;;;;;;;5071022;28;20091;-78
2022/05/20 07:36:28;;;;;;;18.83;9.88;;;;;;;;;;5072140;28;20142;-77
2022/05/20 07:38:55;;;;;;;18.50;9.65;;;;;;;;;;5071836;28;20703;-77
2022/05/20 07:41:23;;;;;;;22.95;10.82;;;;;;;;;;5069256;28;20171;-77
2022/05/20 07:43:50;;;;;;;18.13;9.73;;;;;;;;;;5070841;28;20048;-77
2022/05/20 07:46:17;;;;;;;17.35;10.65;;;;;;;;;;5068659;28;20084;-77
2022/05/20 07:48:45;;;;;;;21.88;10.57;;;;;;;;;;5069297;28;20106;-77
2022/05/20 07:51:15;;;;;;;26.85;9.77;;;;;;;;;;5050687;28;20131;-78
2022/05/20 07:53:45;;;;;;;13.35;9.27;;;;;;;;;;5051697;28;20128;-78
2022/05/20 07:56:13;;;;;;;13.98;8.70;;;;;;;;;;5069767;28;20052;-78
2022/05/20 07:58:44;;;;;;;13.93;8.68;;;;;;;;;;5069350;28;20123;-77
2022/05/20 08:01:21;;;;;;;16.23;8.45;;;;;;;;;;5050600;28;20049;-77
2022/05/20 08:06:39;;;;;;;13.00;7.72;;;;;;;;;;5066198;28;20052;-76
2022/05/20 08:09:06;;;;;;;17.75;7.47;;;;;;;;;;5064730;28;20567;-77
2022/05/20 08:11:34;;;;;;;11.07;7.28;;;;;;;;;;5063801;28;20161;-76
2022/05/20 08:14:01;;;;;;;14.27;7.57;;;;;;;;;;5044140;28;20067;-76
2022/05/20 08:16:28;;;;;;;15.45;8.50;;;;;;;;;;5063104;28;20129;-75
2022/05/20 08:18:56;;;;;;;14.18;7.97;;;;;;;;;;5044854;28;20078;-75
2022/05/20 08:21:23;;;;;;;19.58;7.88;;;;;;;;;;5054689;28;20041;-75
2022/05/20 08:23:50;;;;;;;12.25;6.75;;;;;;;;;;5064010;28;20135;-76
2022/05/20 08:26:18;;;;;;;12.23;8.00;;;;;;;;;;5063154;28;20130;-76
2022/05/20 08:28:47;;;;;;;15.13;7.82;;;;;;;;;;5063178;28;20083;-76
2022/05/20 08:31:14;;;;;;;11.52;7.07;;;;;;;;;;5061793;28;20135;-75
2022/05/20 08:33:42;;;;;;;14.35;7.95;;;;;;;;;;5063950;28;20098;-76
2022/05/20 08:36:09;;;;;;;13.52;8.40;;;;;;;;;;5063897;28;20544;-76
2022/05/20 08:38:36;;;;;;;18.25;8.95;;;;;;;;;;5063968;28;20081;-76
2022/05/20 08:41:04;;;;;;;19.73;9.38;;;;;;;;;;5062754;28;20072;-76
2022/05/20 08:43:32;;;;;;;15.93;10.02;;;;;;;;;;5063520;28;20659;-75
2022/05/20 08:45:59;;;;;;;20.15;10.65;;;;;;;;;;5064150;28;20056;-76
2022/05/20 08:48:27;;;;;;;17.35;9.63;;;;;;;;;;5045999;28;20649;-76
2022/05/20 08:50:55;;;;;;;16.48;9.27;;;;;;;;;;5063190;28;20144;-77
2022/05/20 08:53:24;;;;;;;12.10;8.73;;;;;;;;;;5046158;28;20141;-77
2022/05/20 08:55:51;;;;;;;11.55;8.52;;;;;;;;;;5064036;28;20554;-76
2022/05/20 08:58:20;;;;;;;16.33;8.80;;;;;;;;;;5063600;28;20494;-77
2022/05/20 09:00:48;;;;;;;15.88;7.88;;;;;;;;;;5063689;28;20046;-76
2022/05/20 09:03:16;;;;;;;12.00;7.60;;;;;;;;;;5047171;28;20131;-76
2022/05/20 09:05:44;;;;;;;10.25;6.38;;;;;;;;;;5064086;28;20091;-76
2022/05/20 09:08:17;;;;;;;13.10;6.15;;;;;;;;;;5045681;28;20118;-76
2022/05/20 09:10:44;;;;;;;16.95;5.30;;;;;;;;;;5063873;28;20059;-76
2022/05/20 09:13:14;;;;;;;12.48;5.63;;;;;;;;;;5064221;28;20202;-76
2022/05/20 09:15:44;;;;;;;14.35;5.13;;;;;;;;;;5046068;28;20458;-77
2022/05/20 09:18:12;;;;;;;8.88;5.07;;;;;;;;;;5064054;28;20669;-76
2022/05/20 09:20:47;;;;;;;32.10;5.13;;;;;;;;;;5045152;28;20045;-76
2022/05/20 09:23:20;;;;;;;7.35;4.28;;;;;;;;;;5063168;28;20489;-76
2022/05/20 09:25:49;;;;;;;10.82;4.40;;;;;;;;;;5063844;28;20051;-76
2022/05/20 09:28:31;;;;;;;12.45;4.50;;;;;;;;;;5046268;28;20091;-76
2022/05/20 09:31:07;;;;;;;11.65;5.03;;;;;;;;;;5063234;28;20087;-76
2022/05/20 09:33:36;;;;;;;10.23;4.57;;;;;;;;;;5045825;28;20048;-76
2022/05/20 09:36:04;;;;;;;7.78;4.45;;;;;;;;;;5046290;28;20052;-75
2022/05/20 09:38:35;;;;;;;14.85;4.18;;;;;;;;;;5067459;28;20080;-75
2022/05/20 09:41:11;;;;;;;7.95;4.50;;;;;;;;;;5048163;28;20131;-75
2022/05/20 09:43:40;;;;;;;8.20;4.53;;;;;;;;;;5066665;28;20176;-75
2022/05/20 09:46:11;;;;;;;14.27;4.60;;;;;;;;;;5066877;28;20160;-75
2022/05/20 09:48:48;;;;;;;8.48;4.40;;;;;;;;;;5049472;28;20776;-75
2022/05/20 09:51:25;;;;;;;6.28;3.72;;;;;;;;;;5052289;28;20134;-75
2022/05/20 09:54:11;;;;;;;5.47;3.45;;;;;;;;;;5066654;28;20133;-75
2022/05/20 09:56:44;;;;;;;3.88;3.35;;;;;;;;;;5047854;28;20117;-75
2022/05/20 09:59:11;;;;;;;10.63;3.58;;;;;;;;;;5048741;28;20056;-76
2022/05/20 10:01:40;;;;;;;20.55;4.15;;;;;;;;;;5048225;28;20122;-76
2022/05/20 10:04:17;;;;;;;89.57;7.35;;;;;;;;;;5066274;28;20711;-77
2022/05/20 10:06:49;;;;;;;8.80;3.75;;;;;;;;;;5066305;28;20088;-76
2022/05/20 10:09:16;;;;;;;14.10;3.60;;;;;;;;;;5066236;28;20079;-76
2022/05/20 10:11:55;;;;;;;6.82;3.60;;;;;;;;;;5066500;28;20056;-76
2022/05/20 10:14:25;;;;;;;6.32;3.40;;;;;;;;;;5066299;28;20056;-77
2022/05/20 10:16:56;;;;;;;8.70;3.35;;;;;;;;;;5066000;28;20053;-77
2022/05/20 10:19:43;;;;;;;8.65;2.92;;;;;;;;;;5048431;28;20563;-77
2022/05/20 10:22:39;;;;;;;4.45;2.60;;;;;;;;;;5066402;28;20053;-76
2022/05/20 10:25:09;;;;;;;4.05;2.70;;;;;;;;;;5066234;28;20091;-76
2022/05/20 10:27:36;;;;;;;5.30;3.30;;;;;;;;;;5065106;28;20136;-76
2022/05/20 10:33:01;;;;;;;5.60;3.13;;;;;;;;;;5065973;28;20048;-77
2022/05/20 10:35:47;;;;;;;4.82;2.20;;;;;;;;;;5047737;28;20149;-77
2022/05/20 10:38:20;;;;;;;5.20;2.25;;;;;;;;;;5047810;28;20137;-77
2022/05/20 10:40:53;;;;;;;6.47;2.42;;;;;;;;;;5065501;28;20088;-76
2022/05/20 10:43:26;;;;;;;4.40;2.30;;;;;;;;;;5065509;28;20760;-75
2022/05/20 10:49:02;;;;;;;9.80;2.85;;;;;;;;;;5070332;28;20048;-75
2022/05/20 10:51:41;;;;;;;13.98;2.30;;;;;;;;;;5048136;28;20630;-76
2022/05/20 10:54:14;;;;;;;4.75;2.30;;;;;;;;;;5065634;28;20136;-75
2022/05/20 10:57:03;;;;;;;4.93;2.55;;;;;;;;;;5065171;28;20127;-75
2022/05/20 10:59:34;;;;;;;7.72;2.60;;;;;;;;;;5038186;28;20088;-75
2022/05/20 11:02:15;;;;;;;4.05;2.05;;;;;;;;;;5065237;28;20155;-76
2022/05/20 11:05:01;;;;;;;19.10;3.03;;;;;;;;;;5065309;28;20473;-76
2022/05/20 11:07:43;;;;;;;5.22;2.13;;;;;;;;;;5064952;28;20127;-76
2022/05/20 11:10:19;;;;;;;4.40;2.03;;;;;;;;;;5064674;28;20461;-76
2022/05/20 11:12:53;;;;;;;7.43;2.10;;;;;;;;;;5046968;28;20088;-76
2022/05/20 11:15:26;;;;;;;5.78;2.15;;;;;;;;;;5065073;28;20159;-77
2022/05/20 11:18:01;;;;;;;5.57;2.20;;;;;;;;;;5064942;28;20056;-76
2022/05/20 11:20:41;;;;;;;3.97;2.30;;;;;;;;;;5064711;28;20535;-75
2022/05/20 11:23:20;;;;;;;6.20;2.30;;;;;;;;;;5064899;28;20080;-75
2022/05/20 11:25:54;;;;;;;6.35;2.85;;;;;;;;;;5064676;28;20088;-77
2022/05/20 11:28:48;;;;;;;6.88;2.65;;;;;;;;;;5064686;28;20464;-76
2022/05/20 11:31:31;;;;;;;12.68;2.35;;;;;;;;;;5064464;28;20527;-76
2022/05/20 11:34:04;;;;;;;8.05;2.25;;;;;;;;;;5064982;28;20067;-77
2022/05/20 11:36:32;;;;;;;3.90;2.05;;;;;;;;;;5065074;28;20148;-76
2022/05/20 11:39:00;;;;;;;6.97;2.38;;;;;;;;;;5046954;28;20147;-77
2022/05/20 11:41:31;;;;;;;3.17;2.10;;;;;;;;;;5046419;28;20072;-77
2022/05/20 11:44:04;;;;;;;7.93;2.30;;;;;;;;;;5063426;28;20048;-77
2022/05/20 11:46:44;;;;;;;2.33;1.80;;;;;;;;;;5064300;28;20135;-77
2022/05/20 11:49:25;;;;;;;3.53;1.92;;;;;;;;;;5046494;28;20125;-77
2022/05/20 11:52:06;;;;;;;3.63;1.80;;;;;;;;;;5063667;28;20080;-77
2022/05/20 11:54:45;;;;;;;6.78;1.98;;;;;;;;;;5063924;28;20084;-76
2022/05/20 11:57:21;;;;;;;3.60;1.80;;;;;;;;;;5047294;28;20056;-76
2022/05/20 11:59:48;;;;;;;6.40;1.90;;;;;;;;;;5046078;28;20076;-77
2022/05/20 12:02:17;;;;;;;12.90;2.20;;;;;;;;;;5063898;28;20080;-77
2022/05/20 12:04:45;;;;;;;3.17;1.92;;;;;;;;;;5064300;28;20059;-77
2022/05/20 12:07:14;;;;;;;12.68;2.40;;;;;;;;;;5063743;28;20173;-77
2022/05/20 12:09:46;;;;;;;7.90;2.00;;;;;;;;;;5045990;28;20134;-77
2022/05/20 12:12:13;;;;;;;5.80;1.90;;;;;;;;;;5045489;28;20054;-76
2022/05/20 12:14:58;;;;;;;3.92;2.10;;;;;;;;;;5062569;28;20136;-76
2022/05/20 12:17:45;;;;;;;4.00;1.95;;;;;;;;;;5062835;28;20041;-76
2022/05/20 12:25:58;;;;;;;7.55;2.70;;;;;;;;;;5063287;28;20076;-76
2022/05/20 12:28:26;;;;;;;6.47;1.83;;;;;;;;;;5062324;28;20854;-76
2022/05/20 12:31:11;;;;;;;5.13;1.98;;;;;;;;;;5062594;28;20087;-76
2022/05/20 12:33:45;;;;;;;7.47;1.80;;;;;;;;;;5062741;28;20052;-76
2022/05/20 12:36:15;;;;;;;4.18;1.90;;;;;;;;;;5062685;28;20147;-76
2022/05/20 12:38:42;;;;;;;4.03;1.95;;;;;;;;;;5062345;28;20113;-76
2022/05/20 12:41:17;;;;;;;4.70;2.10;;;;;;;;;;5062818;28;20135;-76
2022/05/20 12:43:46;;;;;;;4.20;2.60;;;;;;;;;;5062137;28;20139;-76
2022/05/20 12:46:32;;;;;;;5.80;2.63;;;;;;;;;;5062458;28;20084;-76
2022/05/20 12:49:00;;;;;;;9.52;2.40;;;;;;;;;;5062011;28;20082;-75
2022/05/20 12:51:27;;;;;;;4.53;2.78;;;;;;;;;;5044834;28;20126;-75
2022/05/20 12:53:55;;;;;;;4.07;3.15;;;;;;;;;;5062529;28;20055;-76
2022/05/20 12:56:27;;;;;;;6.05;3.30;;;;;;;;;;5062651;28;20708;-75
2022/05/20 12:59:11;;;;;;;9.07;3.17;;;;;;;;;;5042363;28;20045;-75
2022/05/20 13:01:39;;;;;;;7.53;2.97;;;;;;;;;;5043794;28;20088;-75
2022/05/20 13:04:09;;;;;;;4.15;2.20;;;;;;;;;;5062272;28;20048;-75
2022/05/20 13:06:36;;;;;;;5.85;2.25;;;;;;;;;;5062096;28;20114;-75
2022/05/20 13:09:08;;;;;;;3.85;2.50;;;;;;;;;;5062723;28;20155;-75
2022/05/20 13:11:43;;;;;;;6.78;2.75;;;;;;;;;;5064335;28;20082;-75
2022/05/20 13:14:12;;;;;;;5.57;2.42;;;;;;;;;;5048368;28;20085;-76
2022/05/20 13:16:40;;;;;;;7.00;2.00;;;;;;;;;;5047609;28;20527;-75
2022/05/20 13:19:13;;;;;;;5.35;2.30;;;;;;;;;;5066743;28;20119;-75
2022/05/20 13:21:43;;;;;;;3.30;2.42;;;;;;;;;;5065595;28;20471;-75
2022/05/20 13:24:18;;;;;;;6.15;2.97;;;;;;;;;;5065543;28;20746;-75
2022/05/20 13:26:45;;;;;;;5.07;2.17;;;;;;;;;;5065654;28;20167;-75
2022/05/20 13:29:13;;;;;;;7.63;3.17;;;;;;;;;;5065794;28;20811;-75
2022/05/20 13:31:41;;;;;;;5.82;2.90;;;;;;;;;;5066310;28;20762;-75
2022/05/20 13:34:09;;;;;;;5.00;3.35;;;;;;;;;;5064976;28;20747;-76
2022/05/20 13:36:40;;;;;;;9.68;3.05;;;;;;;;;;5065489;28;20080;-76
2022/05/20 13:39:07;;;;;;;7.80;3.22;;;;;;;;;;5047809;28;20053;-76
2022/05/20 13:41:35;;;;;;;8.77;3.88;;;;;;;;;;5065405;28;20253;-76
2022/05/20 13:44:03;;;;;;;8.82;4.00;;;;;;;;;;5065492;28;20187;-76
2022/05/20 13:49:19;;;;;;;21.38;3.92;;;;;;;;;;5060781;28;20195;-75
2022/05/20 13:51:51;;;;;;;8.82;3.55;;;;;;;;;;5065084;28;20088;-75
2022/05/20 13:54:18;;;;;;;7.22;2.95;;;;;;;;;;5065741;28;20094;-75
2022/05/20 13:56:47;;;;;;;10.85;3.40;;;;;;;;;;5064807;28;20055;-76
2022/05/20 13:59:31;;;;;;;6.82;3.38;;;;;;;;;;5047270;28;20131;-75
2022/05/20 14:02:11;;;;;;;8.88;3.63;;;;;;;;;;5065449;28;20067;-76
2022/05/20 14:04:44;;;;;;;50.53;5.00;;;;;;;;;;5064430;28;20056;-76
2022/05/20 14:07:16;;;;;;;9.18;3.53;;;;;;;;;;5047509;28;20481;-76
2022/05/20 14:09:52;;;;;;;5.50;3.38;;;;;;;;;;5065026;28;20118;-76
2022/05/20 14:12:22;;;;;;;7.88;3.33;;;;;;;;;;5064972;28;20143;-77
2022/05/20 14:14:57;;;;;;;7.93;3.70;;;;;;;;;;5065029;28;20167;-77
2022/05/20 14:17:25;;;;;;;26.25;5.45;;;;;;;;;;5064748;28;20788;-75
2022/05/20 14:19:52;;;;;;;5.10;3.45;;;;;;;;;;5046531;28;20048;-75
2022/05/20 14:22:25;;;;;;;15.43;3.63;;;;;;;;;;5063709;28;20139;-75
2022/05/20 14:25:01;;;;;;;7.75;4.72;;;;;;;;;;5064947;28;20048;-75
2022/05/20 14:27:43;;;;;;;8.35;3.75;;;;;;;;;;5048196;28;20098;-75
2022/05/20 14:30:30;;;;;;;12.70;3.42;;;;;;;;;;5064764;28;20076;-76
2022/05/20 14:32:59;;;;;;;7.78;3.70;;;;;;;;;;5064849;28;20055;-76
2022/05/20 14:35:31;;;;;;;5.57;3.75;;;;;;;;;;5064881;28;20173;-76
2022/05/20 14:38:00;;;;;;;5.40;3.95;;;;;;;;;;5065097;28;20163;-76
2022/05/20 14:40:28;;;;;;;4.72;3.45;;;;;;;;;;5064947;28;20161;-76
2022/05/20 14:42:57;;;;;;;6.03;3.20;;;;;;;;;;5064202;28;20106;-76
2022/05/20 14:45:34;;;;;;;4.15;3.20;;;;;;;;;;5063798;28;20048;-75
2022/05/20 14:48:04;;;;;;;13.27;3.47;;;;;;;;;;5045532;28;20164;-76
2022/05/20 14:50:35;;;;;;;5.53;2.95;;;;;;;;;;5045608;28;20143;-76
2022/05/20 14:53:04;;;;;;;5.15;3.00;;;;;;;;;;5045902;28;20729;-76
2022/05/20 14:55:39;;;;;;;9.93;2.97;;;;;;;;;;5047042;28;20531;-78
2022/05/20 14:58:13;;;;;;;4.72;2.92;;;;;;;;;;5064609;28;20048;-76
2022/05/20 15:00:59;;;;;;;4.45;2.75;;;;;;;;;;5058920;28;20072;-75
2022/05/20 15:03:28;;;;;;;6.28;3.10;;;;;;;;;;5061911;28;20434;-77
2022/05/20 15:05:56;;;;;;;3.00;2.55;;;;;;;;;;5061991;28;20403;-76
2022/05/20 15:08:41;;;;;;;6.35;3.35;;;;;;;;;;5062342;28;20048;-76
2022/05/20 15:11:08;;;;;;;;;;;;;;;;;;5046340;28;20100;-76
2022/05/20 15:13:35;;;;;;;5.30;3.10;;;;;;;;;;5046229;28;19968;-76
2022/05/20 15:16:03;;;;;;;5.30;3.38;;;;;;;;;;5063283;28;20084;-76
2022/05/20 15:18:30;;;;;;;5.75;2.75;;;;;;;;;;5063390;28;20048;-76
2022/05/20 15:20:59;;;;;;;7.88;3.03;;;;;;;;;;5063667;28;20080;-76
2022/05/20 15:23:34;;;;;;;8.93;3.10;;;;;;;;;;5063598;28;20098;-76